createdAt,value
2023-05-14T00:02:02.530Z,96067.77
2023-05-14T00:04:30.604Z,96069.16
2023-05-14T00:06:59.159Z,96065.38
2023-05-14T00:09:27.414Z,96057.77
2023-05-14T00:11:55.697Z,96057.10
2023-05-14T00:14:24.208Z,96057.23
2023-05-14T00:16:52.353Z,96055.95
2023-05-14T00:19:20.803Z,96059.95
2023-05-14T00:21:49.218Z,96059.43
2023-05-14T00:24:17.707Z,96062.45
2023-05-14T00:26:45.891Z,96064.39
2023-05-14T00:29:14.207Z,96062.67
2023-05-14T00:31:42.308Z,96059.02
2023-05-14T00:34:10.540Z,96054.17
2023-05-14T00:36:38.626Z,96056.50
2023-05-14T00:39:07.266Z,96059.31
2023-05-14T00:41:36.203Z,96058.88
2023-05-14T00:44:04.861Z,96053.89
2023-05-14T00:46:32.913Z,96053.55
2023-05-14T00:49:01.233Z,96059.90
2023-05-14T00:51:29.983Z,96060.06
2023-05-14T00:53:58.221Z,96050.02
2023-05-14T00:56:28.196Z,96052.40
2023-05-14T00:58:56.572Z,96047.54
2023-05-14T01:01:24.930Z,96049.95
2023-05-14T01:03:54.986Z,96048.91
2023-05-14T01:06:43.304Z,96049.73
2023-05-14T01:09:24.977Z,96048.69
2023-05-14T01:12:13.834Z,96046.16
2023-05-14T01:15:01.537Z,96048.23
2023-05-14T01:17:33.440Z,96048.73
2023-05-14T01:20:02.477Z,96045.90
2023-05-14T01:22:30.714Z,96044.77
2023-05-14T01:24:58.822Z,96046.75
2023-05-14T01:27:38.972Z,96048.27
2023-05-14T01:30:10.731Z,96048.86
2023-05-14T01:32:40.959Z,96044.38
2023-05-14T01:35:10.784Z,96040.23
2023-05-14T01:37:41.896Z,96038.35
2023-05-14T01:40:14.222Z,96037.90
2023-05-14T01:42:43.519Z,96037.91
2023-05-14T01:45:11.960Z,96034.11
2023-05-14T01:47:40.109Z,96025.89
2023-05-14T01:50:08.932Z,96030.91
2023-05-14T01:52:37.181Z,96029.52
2023-05-14T01:55:06.279Z,96026.17
2023-05-14T01:57:34.692Z,96025.45
2023-05-14T02:00:04.453Z,96022.59
2023-05-14T02:02:42.257Z,96018.06
2023-05-14T02:05:13.580Z,96012.73
2023-05-14T02:07:41.932Z,96011.35
2023-05-14T02:10:10.830Z,96012.05
2023-05-14T02:12:39.115Z,96015.07
2023-05-14T02:15:09.103Z,96016.22
2023-05-14T02:17:37.400Z,96020.45
2023-05-14T02:20:07.093Z,96020.64
2023-05-14T02:22:35.302Z,96024.55
2023-05-14T02:25:03.973Z,96015.73
2023-05-14T02:27:32.016Z,96016.65
2023-05-14T02:30:01.036Z,96014.48
2023-05-14T02:32:29.270Z,96013.16
2023-05-14T02:34:57.714Z,96009.53
2023-05-14T02:37:26.199Z,96006.60
2023-05-14T02:39:54.397Z,96010.41
2023-05-14T02:42:24.104Z,96007.00
2023-05-14T02:44:53.278Z,96012.20
2023-05-14T02:47:21.795Z,96013.59
2023-05-14T02:49:50.423Z,96013.76
2023-05-14T02:52:18.726Z,96011.23
2023-05-14T02:54:47.001Z,96010.05
2023-05-14T02:57:15.390Z,96008.76
2023-05-14T02:59:43.577Z,96006.95
2023-05-14T03:02:12.258Z,96006.43
2023-05-14T03:04:40.885Z,96009.69
2023-05-14T03:07:09.115Z,96009.08
2023-05-14T03:09:38.362Z,96007.61
2023-05-14T03:12:08.080Z,96005.83
2023-05-14T03:14:36.314Z,96005.08
2023-05-14T03:17:04.608Z,96008.39
2023-05-14T03:19:33.084Z,96017.46
2023-05-14T03:22:01.650Z,96015.71
2023-05-14T03:24:29.862Z,96019.70
2023-05-14T03:26:58.093Z,96020.77
2023-05-14T03:29:26.542Z,96021.25
2023-05-14T03:31:54.866Z,96016.00
2023-05-14T03:34:23.329Z,96009.27
2023-05-14T03:36:51.440Z,96002.52
2023-05-14T03:39:20.028Z,96011.60
2023-05-14T03:41:48.628Z,96006.15
2023-05-14T03:44:17.071Z,96005.14
2023-05-14T03:46:45.734Z,96003.49
2023-05-14T03:49:14.084Z,96003.48
2023-05-14T03:51:42.097Z,96004.36
2023-05-14T03:54:10.698Z,96003.92
2023-05-14T03:56:39.295Z,96004.21
2023-05-14T03:59:07.459Z,96008.95
2023-05-14T04:01:35.848Z,96012.33
2023-05-14T04:04:04.288Z,96011.48
2023-05-14T04:06:33.487Z,96010.51
2023-05-14T04:09:03.566Z,96007.37
2023-05-14T04:11:31.717Z,96004.99
2023-05-14T04:14:01.039Z,96004.14
2023-05-14T04:16:30.133Z,96007.80
2023-05-14T04:18:58.608Z,96005.85
2023-05-14T04:21:26.983Z,96004.92
2023-05-14T04:23:55.159Z,96002.55
2023-05-14T04:26:23.257Z,96002.52
2023-05-14T04:28:51.493Z,96003.36
2023-05-14T04:31:19.865Z,96008.23
2023-05-14T04:33:48.266Z,96004.98
2023-05-14T04:36:16.599Z,96009.23
2023-05-14T04:38:44.952Z,96005.34
2023-05-14T04:41:13.085Z,96001.45
2023-05-14T04:43:41.303Z,95996.69
2023-05-14T04:46:09.560Z,95994.36
2023-05-14T04:48:37.926Z,95987.05
2023-05-14T04:51:07.174Z,95986.80
2023-05-14T04:53:35.715Z,95984.98
2023-05-14T04:56:03.774Z,95984.32
2023-05-14T04:58:34.585Z,95984.08
2023-05-14T05:01:05.212Z,95978.02
2023-05-14T05:03:33.570Z,95973.63
2023-05-14T05:06:02.064Z,95972.49
2023-05-14T05:08:30.962Z,95973.92
2023-05-14T05:10:59.223Z,95968.95
2023-05-14T05:13:27.483Z,95965.55
2023-05-14T05:15:55.846Z,95959.14
2023-05-14T05:18:24.455Z,95952.46
2023-05-14T05:20:52.583Z,95953.02
2023-05-14T05:23:20.906Z,95948.53
2023-05-14T05:25:50.016Z,95947.41
2023-05-14T05:28:18.099Z,95945.70
2023-05-14T05:30:46.356Z,95944.45
2023-05-14T05:33:14.653Z,95949.17
2023-05-14T05:35:44.649Z,95948.47
2023-05-14T05:38:12.929Z,95943.73
2023-05-14T05:40:41.317Z,95946.95
2023-05-14T05:43:09.480Z,95941.62
2023-05-14T05:45:37.812Z,95941.62
2023-05-14T05:48:06.400Z,95940.84
2023-05-14T05:50:34.515Z,95941.15
2023-05-14T05:53:03.112Z,95943.92
2023-05-14T05:55:31.180Z,95943.68
2023-05-14T05:57:59.485Z,95945.15
2023-05-14T06:00:27.773Z,95944.90
2023-05-14T06:02:56.689Z,95947.16
2023-05-14T06:05:25.069Z,95941.36
2023-05-14T06:07:53.826Z,95940.42
2023-05-14T06:10:22.346Z,95940.63
2023-05-14T06:12:50.969Z,95937.34
2023-05-14T06:15:19.320Z,95933.28
2023-05-14T06:17:47.472Z,95934.70
2023-05-14T06:20:15.993Z,95933.42
2023-05-14T06:22:44.146Z,95934.64
2023-05-14T06:25:12.371Z,95931.33
2023-05-14T06:27:40.741Z,95928.83
2023-05-14T06:30:11.166Z,95919.69
2023-05-14T06:32:39.393Z,95915.02
2023-05-14T06:35:08.265Z,95916.88
2023-05-14T06:37:36.428Z,95919.23
2023-05-14T06:40:05.719Z,95916.34
2023-05-14T06:42:33.901Z,95913.23
2023-05-14T06:45:02.593Z,95914.06
2023-05-14T06:47:30.809Z,95904.80
2023-05-14T06:50:01.200Z,95899.59
2023-05-14T06:52:29.462Z,95896.23
2023-05-14T06:54:57.660Z,95889.21
2023-05-14T06:57:26.015Z,95880.71
2023-05-14T06:59:54.193Z,95878.77
2023-05-14T07:02:22.520Z,95878.55
2023-05-14T07:04:50.922Z,95872.39
2023-05-14T07:07:21.216Z,95869.42
2023-05-14T07:09:49.456Z,95865.84
2023-05-14T07:12:17.668Z,95864.91
2023-05-14T07:14:46.800Z,95861.02
2023-05-14T07:17:15.434Z,95859.16
2023-05-14T07:19:43.733Z,95854.73
2023-05-14T07:22:11.866Z,95850.94
2023-05-14T07:24:39.908Z,95848.77
2023-05-14T07:27:08.746Z,95847.61
2023-05-14T07:29:37.115Z,95847.65
2023-05-14T07:32:05.508Z,95843.38
2023-05-14T07:34:33.777Z,95845.56
2023-05-14T07:37:02.328Z,95846.05
2023-05-14T07:39:30.447Z,95847.13
2023-05-14T07:41:58.610Z,95847.58
2023-05-14T07:44:26.608Z,95840.50
2023-05-14T07:46:55.080Z,95834.79
2023-05-14T07:49:23.444Z,95829.62
2023-05-14T07:51:51.412Z,95832.23
2023-05-14T07:54:19.537Z,95829.67
2023-05-14T07:56:47.691Z,95824.20
2023-05-14T07:59:15.967Z,95815.91
2023-05-14T08:01:44.560Z,95817.98
2023-05-14T08:04:13.157Z,95813.38
2023-05-14T08:06:41.636Z,95808.96
2023-05-14T08:09:09.884Z,95805.70
2023-05-14T08:11:39.485Z,95807.36
2023-05-14T08:14:07.992Z,95804.20
2023-05-14T08:16:36.390Z,95799.33
2023-05-14T08:19:04.778Z,95796.52
2023-05-14T08:21:33.212Z,95792.95
2023-05-14T08:24:01.796Z,95788.02
2023-05-14T08:26:29.890Z,95782.11
2023-05-14T08:28:58.350Z,95782.38
2023-05-14T08:31:26.501Z,95771.95
2023-05-14T08:33:54.910Z,95766.06
2023-05-14T08:36:23.294Z,95759.91
2023-05-14T08:38:51.593Z,95755.79
2023-05-14T08:41:20.155Z,95753.73
2023-05-14T08:44:02.059Z,95750.98
2023-05-14T08:46:31.915Z,95748.84
2023-05-14T08:49:36.099Z,95747.42
2023-05-14T08:52:05.188Z,95749.17
2023-05-14T08:54:33.718Z,95752.00
2023-05-14T08:57:03.809Z,95744.98
2023-05-14T08:59:32.402Z,95738.45
2023-05-14T09:02:06.535Z,95736.66
2023-05-14T09:04:36.209Z,95734.34
2023-05-14T09:07:04.786Z,95729.81
2023-05-14T09:09:33.401Z,95726.25
2023-05-14T09:12:02.574Z,95725.29
2023-05-14T09:14:30.710Z,95723.35
2023-05-14T09:16:59.435Z,95722.99
2023-05-14T09:19:28.332Z,95711.54
2023-05-14T09:21:59.387Z,95718.69
2023-05-14T09:24:31.846Z,95714.25
2023-05-14T09:27:00.003Z,95709.05
2023-05-14T09:29:29.650Z,95712.69
2023-05-14T09:31:58.822Z,95711.58
2023-05-14T09:34:29.467Z,95710.93
2023-05-14T09:36:59.902Z,95715.27
2023-05-14T09:39:28.997Z,95710.37
2023-05-14T09:41:57.637Z,95711.16
2023-05-14T09:44:26.481Z,95705.12
2023-05-14T09:46:55.491Z,95707.36
2023-05-14T09:49:23.982Z,95704.88
2023-05-14T09:51:52.334Z,95705.85
2023-05-14T09:54:20.706Z,95701.20
2023-05-14T09:56:48.984Z,95699.22
2023-05-14T09:59:17.032Z,95694.30
2023-05-14T10:01:46.407Z,95697.17
2023-05-14T10:04:15.494Z,95689.08
2023-05-14T10:06:46.123Z,95684.14
2023-05-14T10:09:17.165Z,95682.52
2023-05-14T10:11:53.002Z,95674.82
2023-05-14T10:14:27.132Z,95670.64
2023-05-14T10:16:59.632Z,95661.95
2023-05-14T10:19:31.365Z,95664.91
2023-05-14T10:22:10.397Z,95665.88
2023-05-14T10:24:39.145Z,95666.95
2023-05-14T10:27:07.288Z,95667.40
2023-05-14T10:29:37.685Z,95666.25
2023-05-14T10:32:08.196Z,95661.14
2023-05-14T10:34:44.277Z,95656.05
2023-05-14T10:37:19.660Z,95659.67
2023-05-14T10:39:55.009Z,95655.59
2023-05-14T10:42:36.078Z,95653.39
2023-05-14T10:45:08.250Z,95651.68
2023-05-14T10:47:38.055Z,95656.19
2023-05-14T10:50:08.703Z,95646.31
2023-05-14T10:52:37.310Z,95647.05
2023-05-14T10:55:13.178Z,95648.21
2023-05-14T10:57:43.959Z,95646.19
2023-05-14T11:00:14.188Z,95647.27
2023-05-14T11:02:44.835Z,95650.27
2023-05-14T11:05:17.966Z,95649.15
2023-05-14T11:07:50.555Z,95651.13
2023-05-14T11:10:20.996Z,95655.46
2023-05-14T11:12:51.251Z,95646.38
2023-05-14T11:15:23.065Z,95649.13
2023-05-14T11:17:53.003Z,95641.58
2023-05-14T11:20:21.530Z,95644.90
2023-05-14T11:22:51.956Z,95648.66
2023-05-14T11:25:21.979Z,95653.79
2023-05-14T11:27:50.742Z,95655.25
2023-05-14T11:30:20.124Z,95653.13
2023-05-14T11:32:50.088Z,95650.27
2023-05-14T11:35:19.027Z,95646.99
2023-05-14T11:37:54.366Z,95648.73
2023-05-14T11:40:22.762Z,95645.46
2023-05-14T11:42:53.632Z,95646.91
2023-05-14T11:45:26.883Z,95638.33
2023-05-14T11:47:55.121Z,95636.27
2023-05-14T11:50:23.966Z,95634.84
2023-05-14T11:52:57.161Z,95631.50
2023-05-14T11:55:25.655Z,95633.41
2023-05-14T11:57:54.533Z,95635.45
2023-05-14T12:00:24.900Z,95634.73
2023-05-14T12:02:54.749Z,95640.23
2023-05-14T12:05:23.036Z,95642.78
2023-05-14T12:07:51.264Z,95641.30
2023-05-14T12:10:19.387Z,95646.05
2023-05-14T12:12:49.003Z,95647.58
2023-05-14T12:15:17.510Z,95645.39
2023-05-14T12:17:52.056Z,95647.02
2023-05-14T12:20:20.947Z,95648.52
2023-05-14T12:22:49.406Z,95642.77
2023-05-14T12:25:17.554Z,95638.55
2023-05-14T12:27:45.600Z,95635.41
2023-05-14T12:32:46.657Z,95635.50
2023-05-14T12:35:15.290Z,95634.44
2023-05-14T12:37:43.385Z,95635.88
2023-05-14T12:40:12.140Z,95639.11
2023-05-14T12:42:40.264Z,95640.03
2023-05-14T12:45:08.965Z,95637.57
2023-05-14T12:47:37.607Z,95637.45
2023-05-14T12:50:07.096Z,95641.56
2023-05-14T12:52:39.175Z,95645.67
2023-05-14T12:55:09.478Z,95647.88
2023-05-14T12:57:39.280Z,95647.27
2023-05-14T13:00:21.219Z,95638.73
2023-05-14T13:02:49.723Z,95639.16
2023-05-14T13:05:18.105Z,95646.52
2023-05-14T13:07:46.347Z,95645.23
2023-05-14T13:10:14.630Z,95643.05
2023-05-14T13:12:42.758Z,95638.70
2023-05-14T13:15:11.733Z,95631.72
2023-05-14T13:17:41.549Z,95626.69
2023-05-14T13:20:10.283Z,95626.95
2023-05-14T13:22:38.619Z,95628.30
2023-05-14T13:25:07.888Z,95623.63
2023-05-14T13:27:37.182Z,95619.88
2023-05-14T13:30:06.294Z,95612.04
2023-05-14T13:32:34.583Z,95603.11
2023-05-14T13:35:02.990Z,95604.95
2023-05-14T13:37:31.010Z,95604.41
2023-05-14T13:39:59.143Z,95599.85
2023-05-14T13:42:27.394Z,95597.12
2023-05-14T13:44:56.563Z,95600.88
2023-05-14T13:47:25.980Z,95598.34
2023-05-14T13:49:55.264Z,95591.04
2023-05-14T13:52:23.308Z,95584.42
2023-05-14T13:54:51.528Z,95580.66
2023-05-14T13:57:20.349Z,95577.34
2023-05-14T13:59:48.597Z,95568.44
2023-05-14T14:02:16.670Z,95567.00
2023-05-14T14:04:45.206Z,95565.67
2023-05-14T14:07:13.445Z,95557.46
2023-05-14T14:09:41.593Z,95552.20
2023-05-14T14:12:10.469Z,95549.09
2023-05-14T14:14:39.193Z,95551.46
2023-05-14T14:17:09.195Z,95554.14
2023-05-14T14:19:37.491Z,95553.77
2023-05-14T14:22:05.855Z,95550.43
2023-05-14T14:24:34.176Z,95547.98
2023-05-14T14:27:02.496Z,95546.63
2023-05-14T14:29:31.502Z,95545.02
2023-05-14T14:31:59.610Z,95542.23
2023-05-14T14:34:28.170Z,95540.61
2023-05-14T14:36:56.277Z,95537.71
2023-05-14T14:39:25.543Z,95540.62
2023-05-14T14:41:53.579Z,95542.23
2023-05-14T14:44:21.728Z,95548.23
2023-05-14T14:46:49.840Z,95545.87
2023-05-14T14:49:17.909Z,95544.55
2023-05-14T14:51:47.150Z,95544.54
2023-05-14T14:54:15.704Z,95544.65
2023-05-14T14:56:46.087Z,95542.50
2023-05-14T14:59:14.105Z,95536.38
2023-05-14T15:01:42.470Z,95525.24
2023-05-14T15:04:10.787Z,95515.04
2023-05-14T15:06:39.061Z,95507.70
2023-05-14T15:09:07.870Z,95511.72
2023-05-14T15:11:37.502Z,95505.22
2023-05-14T15:14:06.315Z,95496.05
2023-05-14T15:16:34.507Z,95502.05
2023-05-14T15:19:02.812Z,95504.21
2023-05-14T15:21:32.238Z,95502.76
2023-05-14T15:24:00.497Z,95507.10
2023-05-14T15:26:28.875Z,95506.40
2023-05-14T15:28:58.804Z,95504.15
2023-05-14T15:31:27.194Z,95506.23
2023-05-14T15:33:56.296Z,95499.96
2023-05-14T15:36:24.557Z,95498.52
2023-05-14T15:38:52.784Z,95498.79
2023-05-14T15:41:21.344Z,95498.37
2023-05-14T15:43:49.586Z,95491.51
2023-05-14T15:46:18.015Z,95484.20
2023-05-14T15:48:46.346Z,95480.23
2023-05-14T15:51:14.773Z,95476.48
2023-05-14T15:53:43.214Z,95479.55
2023-05-14T15:56:11.463Z,95481.18
2023-05-14T15:58:39.676Z,95476.95
2023-05-14T16:01:07.740Z,95467.25
2023-05-14T16:03:36.002Z,95471.80
2023-05-14T16:06:04.840Z,95472.71
2023-05-14T16:08:33.190Z,95473.63
2023-05-14T16:11:01.474Z,95470.95
2023-05-14T16:13:29.640Z,95467.24
2023-05-14T16:15:59.752Z,95467.41
2023-05-14T16:18:28.199Z,95471.91
2023-05-14T16:20:56.731Z,95466.06
2023-05-14T16:23:25.036Z,95470.25
2023-05-14T16:25:53.700Z,95474.75
2023-05-14T16:28:21.717Z,95477.58
2023-05-14T16:30:50.145Z,95475.05
2023-05-14T16:33:18.323Z,95471.31
2023-05-14T16:35:46.538Z,95467.40
2023-05-14T16:38:14.552Z,95468.25
2023-05-14T16:40:42.900Z,95465.47
2023-05-14T16:43:11.430Z,95466.33
2023-05-14T16:45:40.636Z,95470.13
2023-05-14T16:48:08.844Z,95475.42
2023-05-14T16:50:37.246Z,95481.10
2023-05-14T16:53:05.498Z,95482.11
2023-05-14T16:55:33.644Z,95476.64
2023-05-14T16:58:01.875Z,95471.13
2023-05-14T17:00:30.094Z,95466.30
2023-05-14T17:02:58.325Z,95460.99
2023-05-14T17:05:26.763Z,95454.67
2023-05-14T17:07:55.026Z,95446.00
2023-05-14T17:10:25.328Z,95443.85
2023-05-14T17:12:53.644Z,95437.52
2023-05-14T17:15:41.991Z,95429.83
2023-05-14T17:18:12.080Z,95417.34
2023-05-14T17:20:40.646Z,95416.95
2023-05-14T17:23:08.995Z,95417.38
2023-05-14T17:25:37.441Z,95412.29
2023-05-14T17:28:05.698Z,95414.17
2023-05-14T17:30:33.947Z,95409.55
2023-05-14T17:33:02.197Z,95412.19
2023-05-14T17:35:30.693Z,95412.23
2023-05-14T17:38:00.456Z,95415.82
2023-05-14T17:40:29.186Z,95419.61
2023-05-14T17:42:57.311Z,95425.35
2023-05-14T17:45:26.730Z,95426.73
2023-05-14T17:47:55.177Z,95429.09
2023-05-14T17:50:23.498Z,95431.86
2023-05-14T17:52:51.818Z,95439.46
2023-05-14T17:55:19.871Z,95446.98
2023-05-14T17:57:48.232Z,95447.51
2023-05-14T18:00:17.246Z,95451.79
2023-05-14T18:02:45.390Z,95449.05
2023-05-14T18:05:13.644Z,95441.55
2023-05-14T18:07:41.878Z,95436.52
2023-05-14T18:10:10.921Z,95432.55
2023-05-14T18:12:39.153Z,95426.27
2023-05-14T18:15:08.040Z,95431.69
2023-05-14T18:17:36.276Z,95429.60
2023-05-14T18:20:05.551Z,95425.41
2023-05-14T18:22:33.974Z,95425.08
2023-05-14T18:25:02.606Z,95429.05
2023-05-14T18:27:31.149Z,95422.27
2023-05-14T18:29:59.354Z,95422.74
2023-05-14T18:32:27.593Z,95421.66
2023-05-14T18:34:55.797Z,95421.11
2023-05-14T18:37:23.985Z,95414.61
2023-05-14T18:39:52.158Z,95414.91
2023-05-14T18:42:20.296Z,95420.11
2023-05-14T18:44:48.298Z,95421.59
2023-05-14T18:47:16.670Z,95422.32
2023-05-14T18:49:44.862Z,95423.70
2023-05-14T18:52:13.456Z,95423.52
2023-05-14T18:54:41.649Z,95426.08
2023-05-14T18:57:10.309Z,95425.81
2023-05-14T18:59:38.540Z,95429.67
2023-05-14T19:02:07.094Z,95434.05
2023-05-14T19:04:47.849Z,95433.58
2023-05-14T19:07:19.909Z,95427.58
2023-05-14T19:09:48.386Z,95424.48
2023-05-14T19:12:16.513Z,95425.45
2023-05-14T19:14:44.844Z,95419.94
2023-05-14T19:17:13.092Z,95408.15
2023-05-14T19:19:41.814Z,95402.67
2023-05-14T19:22:09.938Z,95398.23
2023-05-14T19:24:38.160Z,95399.69
2023-05-14T19:27:06.489Z,95400.98
2023-05-14T19:29:37.076Z,95404.17
2023-05-14T19:32:05.927Z,95399.52
2023-05-14T19:34:34.192Z,95403.95
2023-05-14T19:37:02.828Z,95409.15
2023-05-14T19:39:31.173Z,95412.10
2023-05-14T19:41:59.638Z,95412.90
2023-05-14T19:44:27.868Z,95408.72
2023-05-14T19:46:55.966Z,95395.44
2023-05-14T19:49:24.123Z,95392.45
2023-05-14T19:51:52.378Z,95402.44
2023-05-14T19:54:20.673Z,95400.86
2023-05-14T19:56:49.346Z,95400.33
2023-05-14T19:59:17.552Z,95398.39
2023-05-14T20:01:46.124Z,95393.55
2023-05-14T20:04:16.234Z,95384.22
2023-05-14T20:06:45.663Z,95380.88
2023-05-14T20:09:14.642Z,95373.95
2023-05-14T20:11:42.859Z,95365.12
2023-05-14T20:14:11.202Z,95363.18
2023-05-14T20:16:39.464Z,95366.45
2023-05-14T20:19:08.313Z,95369.30
2023-05-14T20:21:36.525Z,95370.49
2023-05-14T20:24:05.286Z,95366.41
2023-05-14T20:26:33.529Z,95364.58
2023-05-14T20:29:01.805Z,95360.85
2023-05-14T20:31:30.017Z,95365.73
2023-05-14T20:33:58.140Z,95362.65
2023-05-14T20:36:29.842Z,95360.39
2023-05-14T20:38:57.968Z,95356.90
2023-05-14T20:41:26.636Z,95348.83
2023-05-14T20:43:54.898Z,95349.08
2023-05-14T20:46:23.253Z,95348.81
2023-05-14T20:48:54.029Z,95342.08
2023-05-14T20:51:22.240Z,95335.76
2023-05-14T20:53:50.574Z,95329.69
2023-05-14T20:56:18.716Z,95330.27
2023-05-14T20:58:46.879Z,95337.42
2023-05-14T21:01:15.199Z,95334.95
2023-05-14T21:03:43.958Z,95334.36
2023-05-14T21:06:12.273Z,95326.65
2023-05-14T21:08:40.705Z,95318.13
2023-05-14T21:11:08.971Z,95320.54
2023-05-14T21:13:37.168Z,95322.91
2023-05-14T21:16:05.864Z,95323.34
2023-05-14T21:18:34.233Z,95328.83
2023-05-14T21:21:02.503Z,95332.80
2023-05-14T21:23:30.871Z,95330.44
2023-05-14T21:25:59.079Z,95335.31
2023-05-14T21:28:27.225Z,95336.02
2023-05-14T21:30:55.280Z,95325.14
2023-05-14T21:33:24.152Z,95320.45
2023-05-14T21:35:52.328Z,95307.98
2023-05-14T21:38:21.285Z,95293.58
2023-05-14T21:40:49.539Z,95288.10
2023-05-14T21:43:17.846Z,95286.36
2023-05-14T21:45:49.445Z,95292.88
2023-05-14T21:48:18.113Z,95298.23
2023-05-14T21:50:46.285Z,95295.11
2023-05-14T21:53:14.522Z,95295.00
2023-05-14T21:55:42.647Z,95285.61
2023-05-14T21:58:10.966Z,95284.21
2023-05-14T22:00:39.220Z,95284.59
2023-05-14T22:03:07.515Z,95288.70
2023-05-14T22:05:36.110Z,95291.27
2023-05-14T22:08:04.754Z,95294.20
2023-05-14T22:10:32.791Z,95299.65
2023-05-14T22:13:01.114Z,95288.25
2023-05-14T22:15:29.291Z,95287.16
2023-05-14T22:17:57.827Z,95280.02
2023-05-14T22:20:26.082Z,95274.17
2023-05-14T22:22:54.465Z,95271.86
2023-05-14T22:25:22.925Z,95265.34
2023-05-14T22:27:51.653Z,95259.89
2023-05-14T22:30:19.814Z,95261.70
2023-05-14T22:32:48.067Z,95252.85
2023-05-14T22:35:17.287Z,95248.58
2023-05-14T22:37:45.776Z,95251.65
2023-05-14T22:40:14.780Z,95259.75
2023-05-14T22:42:43.141Z,95256.11
2023-05-14T22:45:11.785Z,95253.44
2023-05-14T22:47:40.087Z,95255.64
2023-05-14T22:50:11.649Z,95258.98
2023-05-14T22:52:40.519Z,95267.67
2023-05-14T22:55:09.461Z,95268.23
2023-05-14T22:57:38.025Z,95265.96
2023-05-14T23:00:08.010Z,95261.46
2023-05-14T23:02:36.307Z,95261.59
2023-05-14T23:05:05.580Z,95254.39
2023-05-14T23:07:33.612Z,95252.77
2023-05-14T23:10:02.013Z,95246.95
2023-05-14T23:12:30.277Z,95247.45
2023-05-14T23:14:59.465Z,95241.40
2023-05-14T23:17:27.675Z,95243.41
2023-05-14T23:19:56.192Z,95239.45
2023-05-14T23:22:24.505Z,95239.40
2023-05-14T23:24:52.793Z,95237.45
2023-05-14T23:27:21.166Z,95236.53
2023-05-14T23:29:49.285Z,95233.28
2023-05-14T23:32:17.663Z,95229.07
2023-05-14T23:34:46.144Z,95225.39
2023-05-14T23:37:14.793Z,95219.59
2023-05-14T23:39:42.959Z,95219.02
2023-05-14T23:42:11.206Z,95212.98
2023-05-14T23:44:39.520Z,95211.27
2023-05-14T23:47:08.836Z,95214.15
2023-05-14T23:49:37.055Z,95216.59
2023-05-14T23:52:05.782Z,95218.02
2023-05-14T23:54:33.988Z,95215.48
2023-05-14T23:57:03.375Z,95216.13
2023-05-14T23:59:31.666Z,95214.73
